sensor_id;sensor_type;location;lat;lon;timestamp;temperature;humidity
22035;DHT22;11181;51.002;4.356;2022-09-01T00:00:44;22.50;99.90
22035;DHT22;11181;51.002;4.356;2022-09-01T00:03:14;22.50;99.90
22035;DHT22;11181;51.002;4.356;2022-09-01T00:05:41;22.60;99.90
22035;DHT22;11181;51.002;4.356;2022-09-01T00:08:09;22.60;99.90
22035;DHT22;11181;51.002;4.356;2022-09-01T00:10:35;22.60;99.90
22035;DHT22;11181;51.002;4.356;2022-09-01T00:13:04;22.50;99.90
22035;DHT22;11181;51.002;4.356;2022-09-01T00:15:31;22.50;99.90
22035;DHT22;11181;51.002;4.356;2022-09-01T00:17:58;22.40;99.90
22035;DHT22;11181;51.002;4.356;2022-09-01T00:20:26;22.40;99.90
22035;DHT22;11181;51.002;4.356;2022-09-01T00:22:53;22.40;99.90
22035;DHT22;11181;51.002;4.356;2022-09-01T00:25:20;22.30;99.90
22035;DHT22;11181;51.002;4.356;2022-09-01T00:27:49;22.30;99.90
22035;DHT22;11181;51.002;4.356;2022-09-01T00:30:18;21.90;99.90
22035;DHT22;11181;51.002;4.356;2022-09-01T00:32:46;21.50;99.90
22035;DHT22;11181;51.002;4.356;2022-09-01T00:35:13;21.40;99.90
22035;DHT22;11181;51.002;4.356;2022-09-01T00:37:40;21.40;99.90
22035;DHT22;11181;51.002;4.356;2022-09-01T00:40:09;21.50;99.90
22035;DHT22;11181;51.002;4.356;2022-09-01T00:42:38;21.40;99.90
22035;DHT22;11181;51.002;4.356;2022-09-01T00:45:07;21.30;99.90
22035;DHT22;11181;51.002;4.356;2022-09-01T00:47:36;21.40;99.90
22035;DHT22;11181;51.002;4.356;2022-09-01T00:50:05;21.50;99.90
22035;DHT22;11181;51.002;4.356;2022-09-01T00:52:34;21.40;99.90
22035;DHT22;11181;51.002;4.356;2022-09-01T00:55:07;21.50;99.90
22035;DHT22;11181;51.002;4.356;2022-09-01T00:57:35;21.50;99.90
22035;DHT22;11181;51.002;4.356;2022-09-01T01:00:08;21.50;99.90
22035;DHT22;11181;51.002;4.356;2022-09-01T01:02:39;21.20;99.90
22035;DHT22;11181;51.002;4.356;2022-09-01T01:05:07;21.00;99.90
22035;DHT22;11181;51.002;4.356;2022-09-01T01:07:34;20.70;99.90
22035;DHT22;11181;51.002;4.356;2022-09-01T01:10:04;20.30;99.90
22035;DHT22;11181;51.002;4.356;2022-09-01T01:12:32;20.20;99.90
22035;DHT22;11181;51.002;4.356;2022-09-01T01:15:03;20.30;99.90
22035;DHT22;11181;51.002;4.356;2022-09-01T01:17:31;20.40;99.90
22035;DHT22;11181;51.002;4.356;2022-09-01T01:20:00;20.50;99.90
22035;DHT22;11181;51.002;4.356;2022-09-01T01:22:47;20.20;99.90
22035;DHT22;11181;51.002;4.356;2022-09-01T01:25:30;20.20;99.90
22035;DHT22;11181;51.002;4.356;2022-09-01T01:28:06;20.40;99.90
22035;DHT22;11181;51.002;4.356;2022-09-01T01:30:35;20.50;99.90
22035;DHT22;11181;51.002;4.356;2022-09-01T01:33:04;20.70;99.90
22035;DHT22;11181;51.002;4.356;2022-09-01T01:35:32;20.80;99.90
22035;DHT22;11181;51.002;4.356;2022-09-01T01:38:00;20.90;99.90
22035;DHT22;11181;51.002;4.356;2022-09-01T01:40:29;21.00;99.90
22035;DHT22;11181;51.002;4.356;2022-09-01T01:42:56;21.10;99.90
22035;DHT22;11181;51.002;4.356;2022-09-01T01:45:26;21.20;99.90
22035;DHT22;11181;51.002;4.356;2022-09-01T01:47:54;21.20;99.90
22035;DHT22;11181;51.002;4.356;2022-09-01T01:50:23;21.20;99.90
22035;DHT22;11181;51.002;4.356;2022-09-01T01:52:51;21.30;99.90
22035;DHT22;11181;51.002;4.356;2022-09-01T01:55:19;21.40;99.90
22035;DHT22;11181;51.002;4.356;2022-09-01T01:57:54;21.50;99.90
22035;DHT22;11181;51.002;4.356;2022-09-01T02:00:23;21.50;99.90
22035;DHT22;11181;51.002;4.356;2022-09-01T02:02:52;21.60;99.90
22035;DHT22;11181;51.002;4.356;2022-09-01T02:05:21;21.70;99.90
22035;DHT22;11181;51.002;4.356;2022-09-01T02:07:51;21.70;99.90
22035;DHT22;11181;51.002;4.356;2022-09-01T02:10:22;21.70;99.70
22035;DHT22;11181;51.002;4.356;2022-09-01T02:12:49;21.80;99.60
22035;DHT22;11181;51.002;4.356;2022-09-01T02:15:18;21.70;99.30
22035;DHT22;11181;51.002;4.356;2022-09-01T02:17:45;21.70;99.40
22035;DHT22;11181;51.002;4.356;2022-09-01T02:20:14;21.70;99.00
22035;DHT22;11181;51.002;4.356;2022-09-01T02:22:42;21.70;99.20
22035;DHT22;11181;51.002;4.356;2022-09-01T02:25:11;21.60;99.10
22035;DHT22;11181;51.002;4.356;2022-09-01T02:27:41;21.60;99.40
22035;DHT22;11181;51.002;4.356;2022-09-01T02:30:09;21.50;99.10
22035;DHT22;11181;51.002;4.356;2022-09-01T02:32:38;21.50;99.10
22035;DHT22;11181;51.002;4.356;2022-09-01T02:35:07;21.20;99.30
22035;DHT22;11181;51.002;4.356;2022-09-01T02:37:35;20.80;99.90
22035;DHT22;11181;51.002;4.356;2022-09-01T02:40:06;20.70;99.90
22035;DHT22;11181;51.002;4.356;2022-09-01T02:42:35;20.50;99.90
22035;DHT22;11181;51.002;4.356;2022-09-01T02:45:06;20.50;99.90
22035;DHT22;11181;51.002;4.356;2022-09-01T02:47:43;20.40;99.90
22035;DHT22;11181;51.002;4.356;2022-09-01T02:50:13;20.10;99.90
22035;DHT22;11181;51.002;4.356;2022-09-01T02:52:42;19.90;99.90
22035;DHT22;11181;51.002;4.356;2022-09-01T02:55:10;19.60;99.90
22035;DHT22;11181;51.002;4.356;2022-09-01T02:57:37;19.50;99.90
22035;DHT22;11181;51.002;4.356;2022-09-01T03:00:07;19.60;99.90
22035;DHT22;11181;51.002;4.356;2022-09-01T03:02:48;19.70;99.90
22035;DHT22;11181;51.002;4.356;2022-09-01T03:05:16;20.00;99.90
22035;DHT22;11181;51.002;4.356;2022-09-01T03:07:51;20.20;99.90
22035;DHT22;11181;51.002;4.356;2022-09-01T03:10:22;20.30;99.90
22035;DHT22;11181;51.002;4.356;2022-09-01T03:12:52;20.30;99.90
22035;DHT22;11181;51.002;4.356;2022-09-01T03:15:19;20.40;99.90
22035;DHT22;11181;51.002;4.356;2022-09-01T03:17:48;20.50;99.90
22035;DHT22;11181;51.002;4.356;2022-09-01T03:20:15;20.40;99.90
22035;DHT22;11181;51.002;4.356;2022-09-01T03:22:44;20.50;99.90
22035;DHT22;11181;51.002;4.356;2022-09-01T03:25:12;20.60;99.90
22035;DHT22;11181;51.002;4.356;2022-09-01T03:27:38;20.60;99.90
22035;DHT22;11181;51.002;4.356;2022-09-01T03:30:06;19.90;99.90
22035;DHT22;11181;51.002;4.356;2022-09-01T03:32:34;19.40;99.90
22035;DHT22;11181;51.002;4.356;2022-09-01T03:35:03;19.30;99.90
22035;DHT22;11181;51.002;4.356;2022-09-01T03:37:32;19.50;99.90
22035;DHT22;11181;51.002;4.356;2022-09-01T03:40:02;19.70;99.90
22035;DHT22;11181;51.002;4.356;2022-09-01T03:42:29;19.90;99.90
22035;DHT22;11181;51.002;4.356;2022-09-01T03:44:57;20.10;99.90
22035;DHT22;11181;51.002;4.356;2022-09-01T03:47:24;20.20;99.90
22035;DHT22;11181;51.002;4.356;2022-09-01T03:49:51;20.30;99.90
22035;DHT22;11181;51.002;4.356;2022-09-01T03:52:21;20.30;99.90
22035;DHT22;11181;51.002;4.356;2022-09-01T03:54:52;20.40;99.90
22035;DHT22;11181;51.002;4.356;2022-09-01T03:57:20;20.40;99.90
22035;DHT22;11181;51.002;4.356;2022-09-01T03:59:48;20.40;99.90
22035;DHT22;11181;51.002;4.356;2022-09-01T04:02:16;20.40;99.90
22035;DHT22;11181;51.002;4.356;2022-09-01T04:04:43;20.30;99.90
22035;DHT22;11181;51.002;4.356;2022-09-01T04:07:09;20.30;99.90
22035;DHT22;11181;51.002;4.356;2022-09-01T04:09:38;20.30;99.90
22035;DHT22;11181;51.002;4.356;2022-09-01T04:12:05;20.30;99.90
22035;DHT22;11181;51.002;4.356;2022-09-01T04:14:33;20.30;99.90
22035;DHT22;11181;51.002;4.356;2022-09-01T04:17:00;20.40;99.90
22035;DHT22;11181;51.002;4.356;2022-09-01T04:19:44;20.40;99.90
22035;DHT22;11181;51.002;4.356;2022-09-01T04:22:12;20.50;99.90
22035;DHT22;11181;51.002;4.356;2022-09-01T04:24:41;20.30;99.90
22035;DHT22;11181;51.002;4.356;2022-09-01T04:27:11;20.10;99.90
22035;DHT22;11181;51.002;4.356;2022-09-01T04:29:39;20.10;99.90
22035;DHT22;11181;51.002;4.356;2022-09-01T04:32:08;20.10;99.90
22035;DHT22;11181;51.002;4.356;2022-09-01T04:34:37;20.10;99.90
22035;DHT22;11181;51.002;4.356;2022-09-01T04:37:10;20.10;99.90
22035;DHT22;11181;51.002;4.356;2022-09-01T04:39:37;20.00;99.90
22035;DHT22;11181;51.002;4.356;2022-09-01T04:42:06;19.80;99.90
22035;DHT22;11181;51.002;4.356;2022-09-01T04:44:35;19.70;99.90
22035;DHT22;11181;51.002;4.356;2022-09-01T04:47:02;19.70;99.90
22035;DHT22;11181;51.002;4.356;2022-09-01T04:49:30;19.70;99.90
22035;DHT22;11181;51.002;4.356;2022-09-01T04:51:58;19.70;99.90
22035;DHT22;11181;51.002;4.356;2022-09-01T04:54:25;19.50;99.90
22035;DHT22;11181;51.002;4.356;2022-09-01T04:56:52;19.30;99.90
22035;DHT22;11181;51.002;4.356;2022-09-01T04:59:23;19.30;99.90
22035;DHT22;11181;51.002;4.356;2022-09-01T05:01:52;19.40;99.90
22035;DHT22;11181;51.002;4.356;2022-09-01T05:04:24;19.50;99.90
22035;DHT22;11181;51.002;4.356;2022-09-01T05:06:53;19.60;99.90
22035;DHT22;11181;51.002;4.356;2022-09-01T05:09:26;19.70;99.90
22035;DHT22;11181;51.002;4.356;2022-09-01T05:11:55;19.80;99.90
22035;DHT22;11181;51.002;4.356;2022-09-01T05:14:24;19.80;99.90
22035;DHT22;11181;51.002;4.356;2022-09-01T05:16:55;19.80;99.90
22035;DHT22;11181;51.002;4.356;2022-09-01T05:19:23;19.70;99.90
22035;DHT22;11181;51.002;4.356;2022-09-01T05:21:53;19.70;99.90
22035;DHT22;11181;51.002;4.356;2022-09-01T05:24:22;19.70;99.90
22035;DHT22;11181;51.002;4.356;2022-09-01T05:26:54;19.60;99.90
22035;DHT22;11181;51.002;4.356;2022-09-01T05:29:23;19.70;99.90
22035;DHT22;11181;51.002;4.356;2022-09-01T05:31:52;19.70;99.90
22035;DHT22;11181;51.002;4.356;2022-09-01T05:34:21;19.80;99.90
22035;DHT22;11181;51.002;4.356;2022-09-01T05:36:53;19.80;99.90
22035;DHT22;11181;51.002;4.356;2022-09-01T05:39:20;19.70;99.90
22035;DHT22;11181;51.002;4.356;2022-09-01T05:41:47;19.60;99.90
22035;DHT22;11181;51.002;4.356;2022-09-01T05:44:14;19.60;99.90
22035;DHT22;11181;51.002;4.356;2022-09-01T05:46:44;19.40;99.90
22035;DHT22;11181;51.002;4.356;2022-09-01T05:49:12;19.40;99.90
22035;DHT22;11181;51.002;4.356;2022-09-01T05:51:42;19.30;99.90
22035;DHT22;11181;51.002;4.356;2022-09-01T05:54:10;19.10;99.90
22035;DHT22;11181;51.002;4.356;2022-09-01T05:56:37;19.10;99.90
22035;DHT22;11181;51.002;4.356;2022-09-01T05:59:06;18.90;99.90
22035;DHT22;11181;51.002;4.356;2022-09-01T06:01:33;18.60;99.90
22035;DHT22;11181;51.002;4.356;2022-09-01T06:04:08;18.60;99.90
22035;DHT22;11181;51.002;4.356;2022-09-01T06:06:38;18.60;99.90
22035;DHT22;11181;51.002;4.356;2022-09-01T06:09:11;18.60;99.90
22035;DHT22;11181;51.002;4.356;2022-09-01T06:11:39;18.60;99.90
22035;DHT22;11181;51.002;4.356;2022-09-01T06:14:07;18.80;99.90
22035;DHT22;11181;51.002;4.356;2022-09-01T06:16:36;18.90;99.90
22035;DHT22;11181;51.002;4.356;2022-09-01T06:19:03;18.80;99.90
22035;DHT22;11181;51.002;4.356;2022-09-01T06:21:31;18.80;99.90
22035;DHT22;11181;51.002;4.356;2022-09-01T06:23:59;19.00;99.90
22035;DHT22;11181;51.002;4.356;2022-09-01T06:26:29;19.20;99.90
22035;DHT22;11181;51.002;4.356;2022-09-01T06:28:58;19.30;99.90
22035;DHT22;11181;51.002;4.356;2022-09-01T06:31:27;19.40;99.90
22035;DHT22;11181;51.002;4.356;2022-09-01T06:33:59;19.10;99.90
22035;DHT22;11181;51.002;4.356;2022-09-01T06:36:27;19.10;99.90
22035;DHT22;11181;51.002;4.356;2022-09-01T06:38:58;19.00;99.90
22035;DHT22;11181;51.002;4.356;2022-09-01T06:41:26;19.20;99.90
22035;DHT22;11181;51.002;4.356;2022-09-01T06:43:53;19.50;99.90
22035;DHT22;11181;51.002;4.356;2022-09-01T06:46:21;19.60;99.90
22035;DHT22;11181;51.002;4.356;2022-09-01T06:48:52;19.80;99.90
22035;DHT22;11181;51.002;4.356;2022-09-01T06:51:21;19.60;99.90
22035;DHT22;11181;51.002;4.356;2022-09-01T06:53:51;19.60;99.90
22035;DHT22;11181;51.002;4.356;2022-09-01T06:56:22;19.50;99.90
22035;DHT22;11181;51.002;4.356;2022-09-01T06:58:54;19.40;99.90
22035;DHT22;11181;51.002;4.356;2022-09-01T07:01:21;19.30;99.90
22035;DHT22;11181;51.002;4.356;2022-09-01T07:03:53;19.50;99.90
22035;DHT22;11181;51.002;4.356;2022-09-01T07:06:22;19.60;99.90
22035;DHT22;11181;51.002;4.356;2022-09-01T07:08:52;19.60;99.90
22035;DHT22;11181;51.002;4.356;2022-09-01T07:11:24;19.70;99.90
22035;DHT22;11181;51.002;4.356;2022-09-01T07:13:53;19.50;99.90
22035;DHT22;11181;51.002;4.356;2022-09-01T07:16:22;19.70;99.90
22035;DHT22;11181;51.002;4.356;2022-09-01T07:18:52;19.90;99.90
22035;DHT22;11181;51.002;4.356;2022-09-01T07:21:20;20.10;99.90
22035;DHT22;11181;51.002;4.356;2022-09-01T07:23:47;20.10;99.90
22035;DHT22;11181;51.002;4.356;2022-09-01T07:26:14;20.10;99.90
22035;DHT22;11181;51.002;4.356;2022-09-01T07:28:45;20.20;99.90
22035;DHT22;11181;51.002;4.356;2022-09-01T07:31:17;20.40;99.90
22035;DHT22;11181;51.002;4.356;2022-09-01T07:33:46;20.60;99.90
22035;DHT22;11181;51.002;4.356;2022-09-01T07:36:15;20.90;99.90
22035;DHT22;11181;51.002;4.356;2022-09-01T07:38:43;21.20;99.90
22035;DHT22;11181;51.002;4.356;2022-09-01T07:41:10;21.40;99.90
22035;DHT22;11181;51.002;4.356;2022-09-01T07:43:38;21.60;99.90
22035;DHT22;11181;51.002;4.356;2022-09-01T07:46:11;21.70;99.90
22035;DHT22;11181;51.002;4.356;2022-09-01T07:48:38;21.90;99.90
22035;DHT22;11181;51.002;4.356;2022-09-01T07:51:05;22.20;99.90
22035;DHT22;11181;51.002;4.356;2022-09-01T07:53:33;22.10;99.90
22035;DHT22;11181;51.002;4.356;2022-09-01T07:56:07;22.40;99.90
22035;DHT22;11181;51.002;4.356;2022-09-01T07:58:36;22.50;99.90
22035;DHT22;11181;51.002;4.356;2022-09-01T08:01:06;22.30;99.90
22035;DHT22;11181;51.002;4.356;2022-09-01T08:03:35;22.60;99.90
22035;DHT22;11181;51.002;4.356;2022-09-01T08:06:03;22.80;99.90
22035;DHT22;11181;51.002;4.356;2022-09-01T08:08:31;23.00;99.90
22035;DHT22;11181;51.002;4.356;2022-09-01T08:10:58;23.20;99.90
22035;DHT22;11181;51.002;4.356;2022-09-01T08:13:26;23.50;99.90
22035;DHT22;11181;51.002;4.356;2022-09-01T08:15:53;23.60;99.90
22035;DHT22;11181;51.002;4.356;2022-09-01T08:18:20;23.90;99.90
22035;DHT22;11181;51.002;4.356;2022-09-01T08:20:49;24.10;99.90
22035;DHT22;11181;51.002;4.356;2022-09-01T08:23:17;24.40;99.90
22035;DHT22;11181;51.002;4.356;2022-09-01T08:25:46;24.50;99.90
22035;DHT22;11181;51.002;4.356;2022-09-01T08:28:14;24.60;99.90
22035;DHT22;11181;51.002;4.356;2022-09-01T08:30:43;24.70;99.90
22035;DHT22;11181;51.002;4.356;2022-09-01T08:33:10;24.70;99.80
22035;DHT22;11181;51.002;4.356;2022-09-01T08:35:38;25.00;99.70
22035;DHT22;11181;51.002;4.356;2022-09-01T08:38:07;25.00;99.90
22035;DHT22;11181;51.002;4.356;2022-09-01T08:40:35;24.60;99.90
22035;DHT22;11181;51.002;4.356;2022-09-01T08:43:12;24.80;99.90
22035;DHT22;11181;51.002;4.356;2022-09-01T08:45:45;24.90;99.90
22035;DHT22;11181;51.002;4.356;2022-09-01T08:48:16;25.00;99.10
22035;DHT22;11181;51.002;4.356;2022-09-01T08:50:50;25.20;98.80
22035;DHT22;11181;51.002;4.356;2022-09-01T08:53:26;25.70;98.20
22035;DHT22;11181;51.002;4.356;2022-09-01T08:55:56;25.80;97.70
22035;DHT22;11181;51.002;4.356;2022-09-01T08:58:25;25.60;98.00
22035;DHT22;11181;51.002;4.356;2022-09-01T09:00:55;25.60;98.00
22035;DHT22;11181;51.002;4.356;2022-09-01T09:03:31;25.80;97.80
22035;DHT22;11181;51.002;4.356;2022-09-01T09:06:09;26.10;97.90
22035;DHT22;11181;51.002;4.356;2022-09-01T09:08:54;26.40;96.70
22035;DHT22;11181;51.002;4.356;2022-09-01T09:11:45;26.80;96.10
22035;DHT22;11181;51.002;4.356;2022-09-01T09:14:31;26.90;95.30
22035;DHT22;11181;51.002;4.356;2022-09-01T09:17:03;26.80;95.60
22035;DHT22;11181;51.002;4.356;2022-09-01T09:19:32;27.00;95.10
22035;DHT22;11181;51.002;4.356;2022-09-01T09:22:03;27.40;95.20
22035;DHT22;11181;51.002;4.356;2022-09-01T09:24:35;27.80;94.10
22035;DHT22;11181;51.002;4.356;2022-09-01T09:27:17;27.90;93.90
22035;DHT22;11181;51.002;4.356;2022-09-01T09:29:45;28.20;92.90
22035;DHT22;11181;51.002;4.356;2022-09-01T09:32:12;28.20;92.60
22035;DHT22;11181;51.002;4.356;2022-09-01T09:34:41;28.40;92.50
22035;DHT22;11181;51.002;4.356;2022-09-01T09:37:23;28.70;92.20
22035;DHT22;11181;51.002;4.356;2022-09-01T09:40:06;28.80;91.40
22035;DHT22;11181;51.002;4.356;2022-09-01T09:42:34;28.90;90.70
22035;DHT22;11181;51.002;4.356;2022-09-01T09:45:05;28.50;91.00
22035;DHT22;11181;51.002;4.356;2022-09-01T09:47:43;28.30;90.90
22035;DHT22;11181;51.002;4.356;2022-09-01T09:50:15;28.40;91.90
22035;DHT22;11181;51.002;4.356;2022-09-01T09:52:43;27.70;91.00
22035;DHT22;11181;51.002;4.356;2022-09-01T09:55:21;28.10;91.10
22035;DHT22;11181;51.002;4.356;2022-09-01T09:57:50;27.90;90.60
22035;DHT22;11181;51.002;4.356;2022-09-01T10:00:21;28.10;90.60
22035;DHT22;11181;51.002;4.356;2022-09-01T10:02:53;28.40;90.30
22035;DHT22;11181;51.002;4.356;2022-09-01T10:05:34;28.50;89.50
22035;DHT22;11181;51.002;4.356;2022-09-01T10:08:03;28.40;89.00
22035;DHT22;11181;51.002;4.356;2022-09-01T10:10:38;28.60;87.70
22035;DHT22;11181;51.002;4.356;2022-09-01T10:13:09;28.30;88.10
22035;DHT22;11181;51.002;4.356;2022-09-01T10:15:36;28.60;87.80
22035;DHT22;11181;51.002;4.356;2022-09-01T10:18:06;28.80;86.00
22035;DHT22;11181;51.002;4.356;2022-09-01T10:20:37;28.60;85.00
22035;DHT22;11181;51.002;4.356;2022-09-01T10:23:05;28.70;85.30
22035;DHT22;11181;51.002;4.356;2022-09-01T10:25:34;28.90;84.60
22035;DHT22;11181;51.002;4.356;2022-09-01T10:28:07;28.90;83.80
22035;DHT22;11181;51.002;4.356;2022-09-01T10:30:38;29.50;83.10
22035;DHT22;11181;51.002;4.356;2022-09-01T10:33:08;29.80;82.50
22035;DHT22;11181;51.002;4.356;2022-09-01T10:35:36;29.60;81.60
22035;DHT22;11181;51.002;4.356;2022-09-01T10:38:08;29.60;82.90
22035;DHT22;11181;51.002;4.356;2022-09-01T10:40:39;29.70;80.50
22035;DHT22;11181;51.002;4.356;2022-09-01T10:43:35;29.20;81.60
22035;DHT22;11181;51.002;4.356;2022-09-01T10:49:21;29.50;81.30
22035;DHT22;11181;51.002;4.356;2022-09-01T10:52:07;29.40;79.00
22035;DHT22;11181;51.002;4.356;2022-09-01T10:54:53;29.50;80.00
22035;DHT22;11181;51.002;4.356;2022-09-01T10:57:38;29.90;77.80
22035;DHT22;11181;51.002;4.356;2022-09-01T11:00:46;30.10;76.50
22035;DHT22;11181;51.002;4.356;2022-09-01T11:03:38;29.30;78.40
22035;DHT22;11181;51.002;4.356;2022-09-01T11:06:05;28.80;79.90
22035;DHT22;11181;51.002;4.356;2022-09-01T11:08:44;29.00;79.10
22035;DHT22;11181;51.002;4.356;2022-09-01T11:11:25;29.50;79.20
22035;DHT22;11181;51.002;4.356;2022-09-01T11:13:57;29.40;78.70
22035;DHT22;11181;51.002;4.356;2022-09-01T11:16:33;29.30;77.70
22035;DHT22;11181;51.002;4.356;2022-09-01T11:22:20;29.30;76.40
22035;DHT22;11181;51.002;4.356;2022-09-01T11:24:51;29.30;75.50
22035;DHT22;11181;51.002;4.356;2022-09-01T11:27:56;29.70;75.30
22035;DHT22;11181;51.002;4.356;2022-09-01T11:30:33;30.00;74.20
22035;DHT22;11181;51.002;4.356;2022-09-01T11:33:11;30.20;73.00
22035;DHT22;11181;51.002;4.356;2022-09-01T11:35:39;30.50;72.90
22035;DHT22;11181;51.002;4.356;2022-09-01T11:38:08;30.80;70.70
22035;DHT22;11181;51.002;4.356;2022-09-01T11:40:36;29.90;71.20
22035;DHT22;11181;51.002;4.356;2022-09-01T11:43:07;29.50;73.00
22035;DHT22;11181;51.002;4.356;2022-09-01T11:45:43;29.90;72.10
22035;DHT22;11181;51.002;4.356;2022-09-01T11:48:15;30.10;72.00
22035;DHT22;11181;51.002;4.356;2022-09-01T11:50:43;30.30;70.70
22035;DHT22;11181;51.002;4.356;2022-09-01T11:53:13;30.20;70.90
22035;DHT22;11181;51.002;4.356;2022-09-01T11:55:42;30.40;71.40
22035;DHT22;11181;51.002;4.356;2022-09-01T11:58:11;30.20;71.90
22035;DHT22;11181;51.002;4.356;2022-09-01T12:00:41;30.30;70.00
22035;DHT22;11181;51.002;4.356;2022-09-01T12:03:20;30.80;70.30
22035;DHT22;11181;51.002;4.356;2022-09-01T12:05:51;31.50;68.70
22035;DHT22;11181;51.002;4.356;2022-09-01T12:08:24;31.60;68.10
22035;DHT22;11181;51.002;4.356;2022-09-01T12:11:02;31.60;66.60
22035;DHT22;11181;51.002;4.356;2022-09-01T12:13:30;31.80;66.40
22035;DHT22;11181;51.002;4.356;2022-09-01T12:16:00;32.10;66.20
22035;DHT22;11181;51.002;4.356;2022-09-01T12:18:29;31.90;65.50
22035;DHT22;11181;51.002;4.356;2022-09-01T12:20:58;31.90;67.20
22035;DHT22;11181;51.002;4.356;2022-09-01T12:23:28;32.00;65.30
22035;DHT22;11181;51.002;4.356;2022-09-01T12:25:57;31.90;65.90
22035;DHT22;11181;51.002;4.356;2022-09-01T12:28:26;31.50;65.10
22035;DHT22;11181;51.002;4.356;2022-09-01T12:30:58;30.80;66.90
22035;DHT22;11181;51.002;4.356;2022-09-01T12:33:25;31.00;68.10
22035;DHT22;11181;51.002;4.356;2022-09-01T12:36:17;31.40;66.40
22035;DHT22;11181;51.002;4.356;2022-09-01T12:38:45;32.10;66.30
22035;DHT22;11181;51.002;4.356;2022-09-01T12:41:39;32.10;64.60
22035;DHT22;11181;51.002;4.356;2022-09-01T12:44:27;30.90;66.10
22035;DHT22;11181;51.002;4.356;2022-09-01T12:46:57;29.80;69.10
22035;DHT22;11181;51.002;4.356;2022-09-01T12:49:32;30.40;69.00
22035;DHT22;11181;51.002;4.356;2022-09-01T12:52:13;30.80;68.20
22035;DHT22;11181;51.002;4.356;2022-09-01T12:54:41;30.70;67.20
22035;DHT22;11181;51.002;4.356;2022-09-01T12:57:25;30.80;67.20
22035;DHT22;11181;51.002;4.356;2022-09-01T13:00:07;30.30;67.10
22035;DHT22;11181;51.002;4.356;2022-09-01T13:02:37;30.50;67.20
22035;DHT22;11181;51.002;4.356;2022-09-01T13:05:26;31.10;66.10
22035;DHT22;11181;51.002;4.356;2022-09-01T13:07:54;31.10;66.70
22035;DHT22;11181;51.002;4.356;2022-09-01T13:10:21;31.20;66.20
22035;DHT22;11181;51.002;4.356;2022-09-01T13:12:49;31.50;64.40
22035;DHT22;11181;51.002;4.356;2022-09-01T13:15:17;31.90;63.90
22035;DHT22;11181;51.002;4.356;2022-09-01T13:17:46;32.40;64.40
22035;DHT22;11181;51.002;4.356;2022-09-01T13:20:13;32.50;63.90
22035;DHT22;11181;51.002;4.356;2022-09-01T13:22:40;32.60;64.40
22035;DHT22;11181;51.002;4.356;2022-09-01T13:25:09;32.80;62.80
22035;DHT22;11181;51.002;4.356;2022-09-01T13:27:38;32.50;62.90
22035;DHT22;11181;51.002;4.356;2022-09-01T13:30:10;32.60;63.20
22035;DHT22;11181;51.002;4.356;2022-09-01T13:32:37;32.90;62.50
22035;DHT22;11181;51.002;4.356;2022-09-01T13:35:07;33.00;62.80
22035;DHT22;11181;51.002;4.356;2022-09-01T13:37:34;32.00;62.10
22035;DHT22;11181;51.002;4.356;2022-09-01T13:40:01;31.60;63.20
22035;DHT22;11181;51.002;4.356;2022-09-01T13:42:28;31.30;63.40
22035;DHT22;11181;51.002;4.356;2022-09-01T13:44:55;30.90;64.20
22035;DHT22;11181;51.002;4.356;2022-09-01T13:47:22;30.90;64.40
22035;DHT22;11181;51.002;4.356;2022-09-01T13:49:50;30.90;64.80
22035;DHT22;11181;51.002;4.356;2022-09-01T13:52:18;31.10;65.10
22035;DHT22;11181;51.002;4.356;2022-09-01T13:54:46;31.40;64.20
22035;DHT22;11181;51.002;4.356;2022-09-01T13:57:12;30.90;63.80
22035;DHT22;11181;51.002;4.356;2022-09-01T13:59:40;30.40;64.50
22035;DHT22;11181;51.002;4.356;2022-09-01T14:02:08;30.20;65.30
22035;DHT22;11181;51.002;4.356;2022-09-01T14:04:35;30.50;64.00
22035;DHT22;11181;51.002;4.356;2022-09-01T14:07:03;30.40;63.80
22035;DHT22;11181;51.002;4.356;2022-09-01T14:09:31;30.60;65.90
22035;DHT22;11181;51.002;4.356;2022-09-01T14:11:58;30.70;63.60
22035;DHT22;11181;51.002;4.356;2022-09-01T14:14:25;30.90;63.60
22035;DHT22;11181;51.002;4.356;2022-09-01T14:16:52;31.10;63.00
22035;DHT22;11181;51.002;4.356;2022-09-01T14:19:20;30.70;62.10
22035;DHT22;11181;51.002;4.356;2022-09-01T14:21:47;30.70;63.40
22035;DHT22;11181;51.002;4.356;2022-09-01T14:24:15;30.90;62.40
22035;DHT22;11181;51.002;4.356;2022-09-01T14:26:46;31.10;62.00
22035;DHT22;11181;51.002;4.356;2022-09-01T14:29:15;30.90;61.90
22035;DHT22;11181;51.002;4.356;2022-09-01T14:31:42;31.00;61.80
22035;DHT22;11181;51.002;4.356;2022-09-01T14:34:09;30.80;61.20
22035;DHT22;11181;51.002;4.356;2022-09-01T14:36:37;30.90;61.50
22035;DHT22;11181;51.002;4.356;2022-09-01T14:39:04;31.10;60.90
22035;DHT22;11181;51.002;4.356;2022-09-01T14:41:31;31.10;61.90
22035;DHT22;11181;51.002;4.356;2022-09-01T14:43:59;31.60;61.10
22035;DHT22;11181;51.002;4.356;2022-09-01T14:46:27;31.80;59.90
22035;DHT22;11181;51.002;4.356;2022-09-01T14:48:55;32.00;60.40
22035;DHT22;11181;51.002;4.356;2022-09-01T14:51:24;31.70;60.50
22035;DHT22;11181;51.002;4.356;2022-09-01T14:53:52;31.90;59.10
22035;DHT22;11181;51.002;4.356;2022-09-01T14:56:20;31.50;59.80
22035;DHT22;11181;51.002;4.356;2022-09-01T14:58:48;31.40;60.50
22035;DHT22;11181;51.002;4.356;2022-09-01T15:01:19;31.30;59.40
22035;DHT22;11181;51.002;4.356;2022-09-01T15:03:47;31.50;58.70
22035;DHT22;11181;51.002;4.356;2022-09-01T15:06:15;31.50;58.30
22035;DHT22;11181;51.002;4.356;2022-09-01T15:08:43;31.50;59.00
22035;DHT22;11181;51.002;4.356;2022-09-01T15:11:11;30.80;58.90
22035;DHT22;11181;51.002;4.356;2022-09-01T15:13:39;30.90;59.20
22035;DHT22;11181;51.002;4.356;2022-09-01T15:16:12;31.20;58.30
22035;DHT22;11181;51.002;4.356;2022-09-01T15:18:41;31.50;58.30
22035;DHT22;11181;51.002;4.356;2022-09-01T15:21:16;31.30;58.20
22035;DHT22;11181;51.002;4.356;2022-09-01T15:23:43;31.30;58.00
22035;DHT22;11181;51.002;4.356;2022-09-01T15:26:10;31.30;57.80
22035;DHT22;11181;51.002;4.356;2022-09-01T15:28:37;31.20;58.50
22035;DHT22;11181;51.002;4.356;2022-09-01T15:31:04;31.40;58.30
22035;DHT22;11181;51.002;4.356;2022-09-01T15:33:31;31.60;57.90
22035;DHT22;11181;51.002;4.356;2022-09-01T15:35:59;32.00;57.20
22035;DHT22;11181;51.002;4.356;2022-09-01T15:38:26;31.80;56.30
22035;DHT22;11181;51.002;4.356;2022-09-01T15:40:53;31.70;57.30
22035;DHT22;11181;51.002;4.356;2022-09-01T15:43:20;31.10;57.20
22035;DHT22;11181;51.002;4.356;2022-09-01T15:45:47;30.80;56.20
22035;DHT22;11181;51.002;4.356;2022-09-01T15:48:14;30.60;56.90
22035;DHT22;11181;51.002;4.356;2022-09-01T15:50:42;30.60;57.50
22035;DHT22;11181;51.002;4.356;2022-09-01T15:53:11;30.70;57.30
22035;DHT22;11181;51.002;4.356;2022-09-01T15:55:39;30.90;56.80